ESNK/KRF METAR and TAF weather

Enter ICAO airport designator
Station Type Date Time Source
ESNK METAR 2022/11/26 09:50 UTC NOAA

ESNK 260950Z AUTO VRB03KT 4100 BR FEW010/// SCT013/// OVC018/// 01/01 Q1028 REDZ


Station Type Date Time Source
ESNK Decoded METAR 2022/11/26 09:50 UTC NOAA

Kramfors Flygplats, Sweden (ESNK) 63-03N 017-46E 19M
Nov 26, 2022 - 04:50 AM EST / 2022.11.26 0950 UTC
Wind: Variable at 3 MPH (3 KT):0
Visibility: 2 mile(s):0
Sky conditions: overcast
Weather: mist
Temperature: 33 F (1 C)
Dew Point: 33 F (1 C)
Relative Humidity: 100%
Pressure (altimeter): 30.36 in. Hg (1028 hPa)
ob: ESNK 260950Z AUTO VRB03KT 4100 BR FEW010/// SCT013/// OVC018/// 01/01 Q1028 REDZ
cycle: 10

Station Type Date Time Source
ESNK TAF 2017/12/15 06:00 UTC NOAA

TAF
AMD ESNK 150654Z 1506/1521 35005KT 6000 -SN BKN016
TEMPO 1506/1521 2000 SN SG VV009

Example: see airport list